Time;durP1;ratioP1;P1;durP2;ratioP2;P2;SDS_P1;SDS_P2;PMS_P1;PMS_P2;Temp;Humidity;BMP_temperature;BMP_pressure;BME280_temperature;BME280_humidity;BME280_pressure;Samples;Min_cycle;Max_cycle;Signal;HPM_P1;HPM_P2
2022/01/09 00:00:38;;;;;;;19.13;9.83;;;;;;;;;;5095431;28;20229;-83
2022/01/09 00:03:07;;;;;;;21.70;7.17;;;;;;;;;;5095529;28;20248;-84
2022/01/09 00:05:36;;;;;;;23.90;4.97;;;;;;;;;;5095182;28;20236;-84
2022/01/09 00:08:05;;;;;;;20.97;3.93;;;;;;;;;;5095763;28;20283;-85
2022/01/09 00:10:34;;;;;;;9.30;6.43;;;;;;;;;;5095658;28;20198;-84
2022/01/09 00:13:02;;;;;;;46.90;6.73;;;;;;;;;;5094555;28;20227;-84
2022/01/09 00:15:32;;;;;;;44.70;5.07;;;;;;;;;;5095539;28;20201;-83
2022/01/09 00:18:01;;;;;;;17.83;4.10;;;;;;;;;;5095576;28;20292;-84
2022/01/09 00:20:30;;;;;;;24.80;7.43;;;;;;;;;;5095514;28;20208;-84
2022/01/09 00:22:58;;;;;;;26.73;6.03;;;;;;;;;;5095391;28;20233;-83
2022/01/09 00:25:27;;;;;;;31.70;7.50;;;;;;;;;;5094905;28;20256;-84
2022/01/09 00:27:56;;;;;;;14.57;5.43;;;;;;;;;;5095148;28;20205;-84
2022/01/09 00:30:25;;;;;;;23.50;6.77;;;;;;;;;;5095433;28;20228;-83
2022/01/09 00:32:55;;;;;;;41.47;9.67;;;;;;;;;;5096258;28;20231;-84
2022/01/09 00:35:23;;;;;;;22.57;6.37;;;;;;;;;;5115547;28;20229;-84
2022/01/09 00:37:52;;;;;;;43.07;12.40;;;;;;;;;;5115464;28;20200;-83
2022/01/09 00:40:20;;;;;;;24.23;7.63;;;;;;;;;;5115450;28;20261;-84
2022/01/09 00:42:49;;;;;;;34.63;7.23;;;;;;;;;;5115289;28;20273;-84
2022/01/09 00:45:17;;;;;;;27.53;8.80;;;;;;;;;;5114909;28;20227;-84
2022/01/09 00:47:46;;;;;;;26.23;7.13;;;;;;;;;;5115025;28;20260;-84
2022/01/09 00:50:17;;;;;;;24.80;6.10;;;;;;;;;;5115333;28;20213;-84
2022/01/09 00:52:45;;;;;;;20.37;5.70;;;;;;;;;;5114950;28;20291;-84
2022/01/09 00:55:13;;;;;;;19.57;5.37;;;;;;;;;;5115089;28;20224;-85
2022/01/09 00:57:42;;;;;;;15.80;5.03;;;;;;;;;;5115134;28;20291;-85
2022/01/09 01:00:11;;;;;;;17.53;5.60;;;;;;;;;;5115138;28;20258;-85
2022/01/09 01:02:39;;;;;;;15.17;6.20;;;;;;;;;;5114911;28;20252;-85
2022/01/09 01:05:09;;;;;;;19.00;5.03;;;;;;;;;;5114828;28;20248;-85
2022/01/09 01:07:39;;;;;;;18.07;5.60;;;;;;;;;;5114794;28;20250;-85
2022/01/09 01:10:11;;;;;;;21.90;6.23;;;;;;;;;;5114672;28;20204;-85
2022/01/09 01:12:40;;;;;;;30.47;7.00;;;;;;;;;;5114759;28;20228;-85
2022/01/09 01:15:09;;;;;;;17.83;4.97;;;;;;;;;;5114927;28;20257;-85
2022/01/09 01:17:37;;;;;;;20.63;5.47;;;;;;;;;;5114745;28;20231;-85
2022/01/09 01:20:06;;;;;;;28.30;5.77;;;;;;;;;;5114708;28;20204;-85
2022/01/09 01:22:35;;;;;;;16.27;4.83;;;;;;;;;;5114858;28;20286;-85
2022/01/09 01:25:06;;;;;;;15.33;5.07;;;;;;;;;;5114238;28;20303;-85
2022/01/09 01:27:34;;;;;;;13.47;3.40;;;;;;;;;;5114405;28;20212;-85
2022/01/09 01:30:03;;;;;;;31.90;5.70;;;;;;;;;;5114618;28;20228;-85
2022/01/09 01:32:31;;;;;;;20.67;4.83;;;;;;;;;;5114343;28;20204;-85
2022/01/09 01:46:59;;;;;;;30.17;5.70;;;;;;;;;;5132024;27;20551;-84
2022/01/09 01:49:27;;;;;;;28.43;5.80;;;;;;;;;;5111834;28;20196;-84
2022/01/09 01:51:56;;;;;;;21.53;6.47;;;;;;;;;;5111617;28;20197;-84
2022/01/09 01:54:27;;;;;;;15.23;4.00;;;;;;;;;;5111601;28;20325;-84
2022/01/09 01:56:55;;;;;;;7.70;2.87;;;;;;;;;;5111773;28;20251;-84
2022/01/09 01:59:24;;;;;;;11.37;5.10;;;;;;;;;;5111535;28;20228;-85
2022/01/09 02:01:52;;;;;;;18.83;4.90;;;;;;;;;;5111607;28;20236;-84
2022/01/09 02:04:22;;;;;;;9.67;3.83;;;;;;;;;;5094399;28;20249;-84
2022/01/09 02:06:50;;;;;;;16.73;2.37;;;;;;;;;;5091155;28;20284;-85
2022/01/09 02:09:19;;;;;;;9.30;4.63;;;;;;;;;;5091131;28;20228;-84
2022/01/09 02:11:47;;;;;;;6.73;2.83;;;;;;;;;;5091073;28;20233;-84
2022/01/09 02:14:15;;;;;;;11.50;2.93;;;;;;;;;;5091216;28;20255;-85
2022/01/09 02:16:47;;;;;;;8.83;3.30;;;;;;;;;;5089781;28;20215;-85
2022/01/09 02:19:16;;;;;;;14.37;4.57;;;;;;;;;;5090739;28;20202;-85
2022/01/09 02:21:46;;;;;;;11.67;3.27;;;;;;;;;;5090918;28;20209;-85
2022/01/09 02:24:15;;;;;;;11.90;3.30;;;;;;;;;;5090340;28;20206;-86
2022/01/09 02:26:43;;;;;;;15.20;3.37;;;;;;;;;;5090633;28;20298;-85
2022/01/09 02:29:12;;;;;;;6.43;2.60;;;;;;;;;;5090537;28;20236;-85
2022/01/09 02:31:41;;;;;;;13.10;3.33;;;;;;;;;;5090488;28;20296;-85
2022/01/09 02:34:09;;;;;;;13.83;3.63;;;;;;;;;;5090803;28;20228;-86
2022/01/09 02:36:37;;;;;;;16.13;4.00;;;;;;;;;;5090715;28;20205;-86
2022/01/09 02:39:07;;;;;;;19.50;5.53;;;;;;;;;;5090559;28;20196;-86
2022/01/09 02:41:36;;;;;;;25.87;6.23;;;;;;;;;;5090618;28;20205;-85
2022/01/09 02:44:08;;;;;;;7.87;3.27;;;;;;;;;;5090582;28;20244;-86
2022/01/09 02:46:50;;;;;;;11.27;3.47;;;;;;;;;;5090037;28;20276;-86
2022/01/09 02:49:19;;;;;;;11.63;3.10;;;;;;;;;;5090600;28;20205;-86
2022/01/09 02:51:47;;;;;;;13.13;4.10;;;;;;;;;;5090424;28;20222;-86
2022/01/09 02:57:03;;;;;;;10.77;3.57;;;;;;;;;;5083192;28;20246;-86
2022/01/09 02:59:32;;;;;;;19.80;4.07;;;;;;;;;;5076674;28;20245;-86
2022/01/09 03:02:00;;;;;;;10.30;3.63;;;;;;;;;;5076595;28;20237;-86
2022/01/09 03:04:28;;;;;;;12.87;3.63;;;;;;;;;;5076106;28;20225;-86
2022/01/09 03:06:57;;;;;;;5.07;2.80;;;;;;;;;;5076222;28;20253;-86
2022/01/09 03:09:27;;;;;;;17.47;3.70;;;;;;;;;;5076769;28;20208;-86
2022/01/09 03:11:55;;;;;;;13.80;4.23;;;;;;;;;;5076669;28;20270;-86
2022/01/09 03:14:24;;;;;;;7.70;3.80;;;;;;;;;;5076422;28;20236;-86
2022/01/09 03:16:53;;;;;;;3.83;1.90;;;;;;;;;;5076674;28;20202;-86
2022/01/09 03:19:21;;;;;;;8.27;2.63;;;;;;;;;;5076304;28;20234;-86
2022/01/09 03:21:49;;;;;;;14.70;4.57;;;;;;;;;;5076331;28;20206;-86
2022/01/09 03:24:18;;;;;;;17.63;2.60;;;;;;;;;;5075980;28;20293;-86
2022/01/09 03:26:48;;;;;;;12.40;3.13;;;;;;;;;;5076157;28;20249;-86
2022/01/09 03:29:16;;;;;;;18.90;4.07;;;;;;;;;;5075999;28;20293;-86
2022/01/09 03:31:44;;;;;;;13.00;4.40;;;;;;;;;;5075833;28;20259;-86
2022/01/09 03:34:13;;;;;;;5.80;3.30;;;;;;;;;;5075874;28;20202;-86
2022/01/09 03:36:41;;;;;;;7.70;3.40;;;;;;;;;;5076050;28;20281;-85
2022/01/09 03:39:09;;;;;;;9.73;2.53;;;;;;;;;;5075536;28;20230;-86
2022/01/09 03:41:38;;;;;;;15.37;2.67;;;;;;;;;;5075775;28;20248;-86
2022/01/09 03:44:08;;;;;;;5.30;2.50;;;;;;;;;;5075598;28;20202;-86
2022/01/09 03:46:36;;;;;;;11.93;2.93;;;;;;;;;;5075061;28;20235;-85
2022/01/09 03:49:04;;;;;;;10.57;2.10;;;;;;;;;;5075692;28;20269;-86
2022/01/09 03:51:36;;;;;;;7.83;2.70;;;;;;;;;;5075736;28;20232;-86
2022/01/09 03:54:05;;;;;;;13.10;3.20;;;;;;;;;;5075553;28;20210;-86
2022/01/09 03:56:34;;;;;;;9.87;2.80;;;;;;;;;;5075747;28;20282;-86
2022/01/09 03:59:02;;;;;;;7.20;2.27;;;;;;;;;;5075388;28;20229;-86
2022/01/09 04:01:32;;;;;;;9.67;2.37;;;;;;;;;;5075679;28;20225;-86
2022/01/09 04:04:00;;;;;;;8.63;3.47;;;;;;;;;;5075537;28;20222;-86
2022/01/09 04:06:29;;;;;;;5.47;2.90;;;;;;;;;;5075530;28;20217;-86
2022/01/09 04:09:06;;;;;;;5.27;2.37;;;;;;;;;;5074470;28;20202;-86
2022/01/09 04:11:38;;;;;;;6.37;3.00;;;;;;;;;;5075452;28;20223;-86
2022/01/09 04:14:07;;;;;;;5.60;2.80;;;;;;;;;;5075467;28;20283;-85
2022/01/09 04:16:37;;;;;;;9.53;2.73;;;;;;;;;;5075052;28;20218;-86
2022/01/09 04:19:05;;;;;;;5.13;2.30;;;;;;;;;;5075457;28;20209;-85
2022/01/09 04:21:34;;;;;;;3.57;2.90;;;;;;;;;;5075003;28;20230;-86
2022/01/09 04:24:02;;;;;;;10.17;3.33;;;;;;;;;;5074776;28;20297;-86
2022/01/09 04:26:31;;;;;;;12.07;4.50;;;;;;;;;;5074777;28;20260;-86
2022/01/09 04:28:59;;;;;;;17.27;3.93;;;;;;;;;;5075062;28;20292;-86
2022/01/09 04:31:27;;;;;;;14.13;4.20;;;;;;;;;;5075147;28;20225;-86
2022/01/09 04:33:57;;;;;;;4.83;2.23;;;;;;;;;;5074752;28;20214;-86
2022/01/09 04:36:26;;;;;;;12.90;3.37;;;;;;;;;;5074721;28;20251;-86
2022/01/09 04:38:55;;;;;;;3.27;2.97;;;;;;;;;;5074370;28;20230;-86
2022/01/09 04:41:24;;;;;;;8.97;3.10;;;;;;;;;;5074861;28;20206;-86
2022/01/09 04:43:52;;;;;;;8.17;3.33;;;;;;;;;;5074508;28;20331;-86
2022/01/09 04:46:25;;;;;;;10.67;3.73;;;;;;;;;;5074171;28;20325;-85
2022/01/09 04:48:55;;;;;;;4.83;2.50;;;;;;;;;;5074303;28;20237;-85
2022/01/09 04:51:25;;;;;;;3.47;1.90;;;;;;;;;;5074826;28;20210;-86
2022/01/09 04:53:54;;;;;;;6.50;3.57;;;;;;;;;;5074193;28;20232;-86
2022/01/09 04:56:22;;;;;;;14.47;3.60;;;;;;;;;;5074366;28;20388;-85
2022/01/09 04:58:50;;;;;;;10.97;3.67;;;;;;;;;;5074591;28;20263;-85
2022/01/09 05:01:19;;;;;;;4.13;2.77;;;;;;;;;;5074205;28;20229;-86
2022/01/09 05:03:47;;;;;;;5.97;2.67;;;;;;;;;;5074242;28;20351;-85
2022/01/09 05:06:16;;;;;;;3.13;1.80;;;;;;;;;;5074121;28;20205;-85
2022/01/09 05:08:45;;;;;;;6.13;3.10;;;;;;;;;;5073857;28;20294;-85
2022/01/09 05:11:14;;;;;;;5.20;2.60;;;;;;;;;;5074242;28;20194;-84
2022/01/09 05:13:42;;;;;;;3.10;2.53;;;;;;;;;;5073882;28;20266;-84
2022/01/09 05:16:11;;;;;;;1.80;1.67;;;;;;;;;;5073939;28;20236;-84
2022/01/09 05:18:51;;;;;;;14.10;4.17;;;;;;;;;;5074267;28;20281;-84
2022/01/09 05:21:19;;;;;;;7.50;1.80;;;;;;;;;;5073785;28;20194;-84
2022/01/09 05:23:49;;;;;;;16.07;4.40;;;;;;;;;;5073995;28;20260;-84
2022/01/09 05:26:17;;;;;;;6.43;3.33;;;;;;;;;;5073732;28;20223;-84
2022/01/09 05:28:46;;;;;;;2.03;1.57;;;;;;;;;;5073988;28;20251;-84
2022/01/09 05:31:14;;;;;;;7.80;1.87;;;;;;;;;;5074176;28;20213;-85
2022/01/09 05:33:43;;;;;;;9.20;2.93;;;;;;;;;;5074005;28;20198;-85
2022/01/09 05:36:11;;;;;;;12.83;2.47;;;;;;;;;;5073981;28;20210;-85
2022/01/09 05:38:39;;;;;;;3.57;2.43;;;;;;;;;;5073832;28;20281;-85
2022/01/09 05:41:09;;;;;;;10.43;3.57;;;;;;;;;;5074088;28;20297;-85
2022/01/09 05:43:39;;;;;;;12.27;2.80;;;;;;;;;;5074077;28;20428;-85
2022/01/09 05:46:08;;;;;;;20.50;4.10;;;;;;;;;;5073433;28;20376;-85
2022/01/09 05:48:36;;;;;;;5.47;1.50;;;;;;;;;;5073841;28;20217;-85
2022/01/09 05:51:05;;;;;;;8.37;3.43;;;;;;;;;;5073626;28;20237;-85
2022/01/09 05:53:33;;;;;;;7.83;3.93;;;;;;;;;;5073747;28;20314;-85
2022/01/09 05:56:02;;;;;;;6.27;2.83;;;;;;;;;;5073534;28;20270;-84
2022/01/09 05:58:33;;;;;;;6.30;2.50;;;;;;;;;;5073804;28;20228;-85
2022/01/09 06:01:02;;;;;;;11.50;2.83;;;;;;;;;;5073702;28;20192;-85
2022/01/09 06:03:30;;;;;;;5.07;2.23;;;;;;;;;;5073557;28;20245;-85
2022/01/09 06:05:59;;;;;;;7.53;3.00;;;;;;;;;;5073073;28;20205;-85
2022/01/09 06:08:28;;;;;;;7.80;2.13;;;;;;;;;;5073490;28;20221;-84
2022/01/09 06:10:56;;;;;;;4.37;2.17;;;;;;;;;;5073608;28;20271;-85
2022/01/09 06:13:24;;;;;;;4.93;1.70;;;;;;;;;;5073588;28;20209;-85
2022/01/09 06:15:56;;;;;;;3.77;1.67;;;;;;;;;;5073457;28;20229;-85
2022/01/09 06:18:24;;;;;;;12.67;4.03;;;;;;;;;;5073456;28;20194;-85
2022/01/09 06:20:53;;;;;;;12.77;2.20;;;;;;;;;;5073630;28;20201;-85
2022/01/09 06:23:21;;;;;;;4.47;1.97;;;;;;;;;;5073206;28;20240;-85
2022/01/09 06:25:50;;;;;;;7.70;2.53;;;;;;;;;;5073444;28;20201;-85
2022/01/09 06:28:19;;;;;;;7.77;3.30;;;;;;;;;;5073341;28;20257;-85
2022/01/09 06:30:47;;;;;;;13.87;4.90;;;;;;;;;;5073594;28;20250;-85
2022/01/09 06:33:17;;;;;;;10.13;2.83;;;;;;;;;;5076188;28;20222;-85
2022/01/09 06:35:46;;;;;;;7.43;2.67;;;;;;;;;;5077263;28;20229;-85
2022/01/09 06:38:14;;;;;;;11.77;3.20;;;;;;;;;;5077011;28;20298;-85
2022/01/09 06:40:43;;;;;;;4.60;3.90;;;;;;;;;;5076861;28;20206;-85
2022/01/09 06:43:11;;;;;;;5.00;2.20;;;;;;;;;;5076785;28;20221;-85
2022/01/09 06:45:40;;;;;;;8.67;3.50;;;;;;;;;;5076769;28;20241;-85
2022/01/09 06:48:08;;;;;;;4.50;2.33;;;;;;;;;;5076814;28;20257;-85
2022/01/09 06:50:38;;;;;;;25.30;2.67;;;;;;;;;;5076895;28;20198;-85
2022/01/09 06:53:06;;;;;;;8.23;3.23;;;;;;;;;;5076721;28;20229;-85
2022/01/09 06:55:35;;;;;;;3.33;2.10;;;;;;;;;;5076215;28;20297;-85
2022/01/09 06:58:03;;;;;;;6.33;2.27;;;;;;;;;;5076895;28;20259;-85
2022/01/09 07:00:32;;;;;;;4.80;2.10;;;;;;;;;;5076687;28;20198;-85
2022/01/09 07:03:00;;;;;;;12.53;3.90;;;;;;;;;;5076481;28;20321;-85
2022/01/09 07:05:29;;;;;;;2.30;2.00;;;;;;;;;;5076174;28;20214;-85
2022/01/09 07:07:58;;;;;;;9.53;3.20;;;;;;;;;;5076709;28;20255;-85
2022/01/09 07:10:27;;;;;;;5.20;2.50;;;;;;;;;;5076449;28;20265;-85
2022/01/09 07:12:55;;;;;;;6.67;2.60;;;;;;;;;;5076408;28;20288;-85
2022/01/09 07:15:24;;;;;;;3.47;1.50;;;;;;;;;;5076663;28;20266;-85
2022/01/09 07:17:52;;;;;;;8.63;2.47;;;;;;;;;;5076262;28;20197;-85
2022/01/09 07:20:21;;;;;;;7.30;2.40;;;;;;;;;;5076200;28;20207;-85
2022/01/09 07:22:49;;;;;;;3.07;1.77;;;;;;;;;;5076009;28;20320;-85
2022/01/09 07:25:19;;;;;;;8.50;2.43;;;;;;;;;;5076410;28;20237;-85
2022/01/09 07:27:47;;;;;;;11.83;4.40;;;;;;;;;;5076387;28;20198;-85
2022/01/09 07:30:16;;;;;;;20.90;4.80;;;;;;;;;;5076063;28;20296;-85
2022/01/09 07:32:44;;;;;;;10.27;4.43;;;;;;;;;;5076243;28;20201;-85
2022/01/09 07:35:13;;;;;;;12.43;4.07;;;;;;;;;;5076416;28;20197;-85
2022/01/09 07:37:41;;;;;;;7.03;3.07;;;;;;;;;;5076345;28;20269;-85
2022/01/09 07:40:10;;;;;;;10.13;3.50;;;;;;;;;;5075698;28;20288;-85
2022/01/09 07:42:40;;;;;;;3.07;1.60;;;;;;;;;;5075912;28;20235;-85
2022/01/09 07:45:09;;;;;;;5.73;2.23;;;;;;;;;;5075882;28;20260;-85
2022/01/09 07:47:38;;;;;;;4.00;1.87;;;;;;;;;;5075500;28;20291;-85
2022/01/09 07:50:09;;;;;;;8.90;3.73;;;;;;;;;;5076018;28;20257;-85
2022/01/09 07:52:38;;;;;;;8.30;2.50;;;;;;;;;;5075730;28;20197;-85
2022/01/09 07:55:07;;;;;;;8.97;3.30;;;;;;;;;;5075674;28;20208;-85
2022/01/09 07:57:36;;;;;;;12.93;4.37;;;;;;;;;;5075846;28;20206;-85
2022/01/09 08:00:07;;;;;;;9.53;3.60;;;;;;;;;;5075176;28;20334;-85
2022/01/09 08:02:35;;;;;;;7.37;1.93;;;;;;;;;;5075583;28;20230;-85
2022/01/09 08:05:04;;;;;;;6.87;1.97;;;;;;;;;;5075499;28;20206;-85
2022/01/09 08:07:32;;;;;;;7.13;2.90;;;;;;;;;;5075547;28;20265;-85
2022/01/09 08:10:00;;;;;;;1.47;1.37;;;;;;;;;;5075252;28;20252;-85
2022/01/09 08:12:29;;;;;;;7.90;3.00;;;;;;;;;;5074728;28;20301;-86
2022/01/09 08:14:57;;;;;;;4.13;2.63;;;;;;;;;;5075487;28;20264;-85
2022/01/09 08:17:27;;;;;;;1.97;1.70;;;;;;;;;;5075091;28;20236;-85
2022/01/09 08:19:56;;;;;;;8.97;3.27;;;;;;;;;;5075391;28;20198;-85
2022/01/09 08:22:28;;;;;;;6.03;2.57;;;;;;;;;;5075200;28;20237;-84
2022/01/09 08:24:56;;;;;;;1.97;1.87;;;;;;;;;;5075071;28;20224;-84
2022/01/09 08:27:25;;;;;;;1.03;1.03;;;;;;;;;;5074712;28;20255;-85
2022/01/09 08:29:53;;;;;;;13.33;1.70;;;;;;;;;;5074543;28;20221;-84
2022/01/09 08:32:22;;;;;;;5.70;2.43;;;;;;;;;;5074671;28;20262;-84
2022/01/09 08:34:51;;;;;;;2.50;1.20;;;;;;;;;;5074860;28;20198;-84
2022/01/09 08:37:21;;;;;;;6.07;3.10;;;;;;;;;;5074592;28;20292;-84
2022/01/09 08:39:50;;;;;;;10.33;3.33;;;;;;;;;;5074712;28;20227;-84
2022/01/09 08:42:18;;;;;;;11.97;3.70;;;;;;;;;;5074231;28;20209;-84
2022/01/09 08:44:46;;;;;;;7.03;2.53;;;;;;;;;;5074785;28;20259;-84
2022/01/09 08:47:15;;;;;;;11.33;3.43;;;;;;;;;;5074288;28;20238;-85
2022/01/09 08:49:44;;;;;;;13.20;3.37;;;;;;;;;;5074540;28;20233;-85
2022/01/09 08:52:14;;;;;;;8.30;3.17;;;;;;;;;;5074381;28;20213;-85
2022/01/09 08:54:42;;;;;;;12.17;4.27;;;;;;;;;;5073894;28;20288;-84
2022/01/09 08:57:11;;;;;;;6.97;3.23;;;;;;;;;;5073912;28;20271;-84
2022/01/09 08:59:40;;;;;;;12.77;4.70;;;;;;;;;;5074410;28;20220;-85
2022/01/09 09:02:08;;;;;;;10.67;4.90;;;;;;;;;;5074189;28;20258;-84
2022/01/09 09:04:38;;;;;;;10.97;3.40;;;;;;;;;;5074152;28;20226;-84
2022/01/09 09:07:08;;;;;;;7.53;3.23;;;;;;;;;;5074347;28;20213;-85
2022/01/09 09:09:37;;;;;;;6.83;3.30;;;;;;;;;;5073891;28;20221;-85
2022/01/09 09:12:06;;;;;;;3.53;2.83;;;;;;;;;;5073919;28;20228;-85
2022/01/09 09:14:35;;;;;;;13.33;3.63;;;;;;;;;;5073963;28;20227;-85
2022/01/09 09:17:03;;;;;;;2.97;2.10;;;;;;;;;;5074278;28;20201;-85
2022/01/09 09:19:32;;;;;;;5.03;3.07;;;;;;;;;;5074019;28;20240;-85
2022/01/09 09:22:00;;;;;;;6.30;2.57;;;;;;;;;;5074234;28;20205;-84
2022/01/09 09:24:28;;;;;;;7.70;2.17;;;;;;;;;;5074006;28;20240;-85
2022/01/09 09:26:58;;;;;;;10.80;2.90;;;;;;;;;;5074047;28;20252;-85
2022/01/09 09:29:27;;;;;;;14.83;3.57;;;;;;;;;;5073572;28;20245;-85
2022/01/09 09:31:56;;;;;;;8.60;3.97;;;;;;;;;;5073846;28;20236;-85
2022/01/09 09:34:24;;;;;;;13.37;3.63;;;;;;;;;;5074012;28;20206;-85
2022/01/09 09:36:52;;;;;;;11.53;4.53;;;;;;;;;;5073930;28;20234;-85
2022/01/09 09:39:21;;;;;;;7.50;2.87;;;;;;;;;;5074049;28;20197;-85
2022/01/09 09:41:51;;;;;;;13.10;3.07;;;;;;;;;;5073836;28;20217;-85
2022/01/09 09:44:21;;;;;;;7.30;2.03;;;;;;;;;;5073748;28;20242;-85
2022/01/09 09:46:50;;;;;;;5.07;2.20;;;;;;;;;;5073384;28;20246;-85
2022/01/09 09:49:20;;;;;;;11.30;2.67;;;;;;;;;;5074039;28;20293;-85
2022/01/09 09:51:48;;;;;;;7.37;3.37;;;;;;;;;;5073652;28;20209;-85
2022/01/09 09:54:17;;;;;;;8.27;3.73;;;;;;;;;;5073484;28;20202;-85
2022/01/09 09:56:45;;;;;;;8.03;3.37;;;;;;;;;;5073585;28;20229;-85
2022/01/09 09:59:13;;;;;;;17.30;4.90;;;;;;;;;;5073542;28;20219;-85
2022/01/09 10:01:44;;;;;;;7.83;3.10;;;;;;;;;;5073476;28;20252;-85
2022/01/09 10:04:12;;;;;;;13.13;4.53;;;;;;;;;;5073361;28;20226;-85
2022/01/09 10:06:42;;;;;;;10.70;2.73;;;;;;;;;;5074378;28;20205;-85
2022/01/09 10:09:12;;;;;;;10.60;4.03;;;;;;;;;;5077604;28;20202;-85
2022/01/09 10:11:48;;;;;;;11.70;3.63;;;;;;;;;;5077443;28;20248;-85
2022/01/09 10:14:18;;;;;;;12.13;2.70;;;;;;;;;;5077270;28;20201;-84
2022/01/09 10:17:02;;;;;;;14.10;4.33;;;;;;;;;;5077393;28;20284;-82
2022/01/09 10:19:41;;;;;;;1.97;1.90;;;;;;;;;;5077585;28;20202;-83
2022/01/09 10:22:22;;;;;;;2.77;1.67;;;;;;;;;;5077490;28;20192;-82
2022/01/09 10:24:51;;;;;;;10.50;2.80;;;;;;;;;;5077411;28;20209;-82
2022/01/09 10:27:28;;;;;;;5.50;2.40;;;;;;;;;;5077373;28;20251;-82
2022/01/09 10:29:56;;;;;;;12.97;2.30;;;;;;;;;;5077233;28;20255;-82
2022/01/09 10:32:28;;;;;;;4.13;2.00;;;;;;;;;;5077201;28;20193;-82
2022/01/09 10:35:09;;;;;;;8.77;3.67;;;;;;;;;;5077132;28;20225;-82
2022/01/09 10:37:37;;;;;;;5.20;2.37;;;;;;;;;;5077324;28;20210;-82
2022/01/09 10:40:08;;;;;;;2.37;1.77;;;;;;;;;;5077302;28;20221;-82
2022/01/09 10:42:36;;;;;;;8.40;2.70;;;;;;;;;;5077202;28;20277;-82
2022/01/09 10:45:18;;;;;;;3.50;2.70;;;;;;;;;;5076871;28;20240;-81
2022/01/09 10:47:47;;;;;;;10.00;3.17;;;;;;;;;;5076825;28;20272;-82
2022/01/09 10:50:27;;;;;;;7.87;3.03;;;;;;;;;;5076676;28;20279;-81
2022/01/09 10:53:10;;;;;;;5.83;2.73;;;;;;;;;;5076682;28;20198;-81
2022/01/09 10:55:38;;;;;;;4.40;2.70;;;;;;;;;;5076441;28;20225;-81
2022/01/09 10:58:16;;;;;;;5.83;2.20;;;;;;;;;;5076682;28;20230;-82
2022/01/09 11:00:45;;;;;;;15.20;7.50;;;;;;;;;;5076770;28;20239;-82
2022/01/09 11:03:13;;;;;;;1.57;1.43;;;;;;;;;;5076723;28;20221;-82
2022/01/09 11:05:44;;;;;;;1.70;1.37;;;;;;;;;;5076649;28;20206;-82
2022/01/09 11:08:15;;;;;;;5.00;1.60;;;;;;;;;;5076534;28;20186;-82
2022/01/09 11:10:43;;;;;;;5.93;2.17;;;;;;;;;;5076443;28;20237;-82
2022/01/09 11:13:15;;;;;;;7.13;3.40;;;;;;;;;;5076381;28;20202;-82
2022/01/09 11:16:32;;;;;;;2.07;1.70;;;;;;;;;;5076338;28;20190;-82
2022/01/09 11:18:33;;;;;;;9.37;3.80;;;;;;;;;;5075592;28;20259;-82
2022/01/09 11:21:03;;;;;;;4.97;1.93;;;;;;;;;;5076426;28;20289;-82
2022/01/09 11:23:36;;;;;;;2.47;1.47;;;;;;;;;;5076107;28;20213;-82
2022/01/09 11:26:07;;;;;;;5.37;2.37;;;;;;;;;;5076176;28;20225;-82
2022/01/09 11:28:38;;;;;;;8.53;2.27;;;;;;;;;;5076319;28;20205;-82
2022/01/09 11:31:12;;;;;;;16.23;3.60;;;;;;;;;;5075913;28;20248;-82
2022/01/09 11:33:55;;;;;;;11.83;3.27;;;;;;;;;;5076321;28;20221;-82
2022/01/09 11:36:30;;;;;;;14.90;2.97;;;;;;;;;;5076368;28;20284;-82
2022/01/09 11:39:02;;;;;;;8.90;3.37;;;;;;;;;;5075859;28;20212;-82
2022/01/09 11:41:33;;;;;;;13.33;3.53;;;;;;;;;;5075932;28;20236;-83
2022/01/09 11:44:02;;;;;;;12.17;1.17;;;;;;;;;;5075826;28;20210;-82
2022/01/09 11:46:32;;;;;;;2.03;1.93;;;;;;;;;;5075562;28;20246;-83
2022/01/09 11:49:03;;;;;;;11.03;4.47;;;;;;;;;;5075786;28;20318;-82
2022/01/09 11:51:34;;;;;;;6.00;2.63;;;;;;;;;;5075435;28;20321;-83
2022/01/09 11:54:10;;;;;;;5.70;2.80;;;;;;;;;;5075586;28;20288;-82
2022/01/09 11:56:53;;;;;;;4.70;1.83;;;;;;;;;;5075661;28;20220;-83
2022/01/09 11:59:53;;;;;;;2.53;2.23;;;;;;;;;;5075890;28;20232;-83
2022/01/09 12:02:38;;;;;;;1.07;1.07;;;;;;;;;;5075890;28;20255;-83
2022/01/09 12:05:08;;;;;;;9.73;2.70;;;;;;;;;;5075346;28;20202;-83
2022/01/09 12:07:54;;;;;;;1.43;1.33;;;;;;;;;;5075406;28;20197;-83
2022/01/09 12:10:29;;;;;;;2.43;2.03;;;;;;;;;;5065802;28;20227;-83
2022/01/09 12:12:58;;;;;;;3.10;2.03;;;;;;;;;;5075768;28;20239;-83
2022/01/09 12:15:36;;;;;;;3.67;1.50;;;;;;;;;;5075251;28;20206;-83
2022/01/09 12:18:06;;;;;;;8.50;2.93;;;;;;;;;;5074902;28;20229;-83
2022/01/09 12:20:40;;;;;;;3.73;1.77;;;;;;;;;;5075561;28;20249;-83
2022/01/09 12:23:09;;;;;;;7.67;3.30;;;;;;;;;;5075147;28;20206;-83
2022/01/09 12:25:43;;;;;;;11.67;4.10;;;;;;;;;;5074818;28;20207;-83
2022/01/09 12:28:13;;;;;;;5.80;3.10;;;;;;;;;;5075426;28;20224;-83
2022/01/09 12:30:56;;;;;;;8.33;3.43;;;;;;;;;;5074168;28;20358;-83
2022/01/09 12:33:49;;;;;;;1.70;1.47;;;;;;;;;;5075037;28;20206;-83
2022/01/09 12:36:22;;;;;;;11.23;2.63;;;;;;;;;;5074936;28;20186;-83
2022/01/09 12:38:55;;;;;;;9.00;4.23;;;;;;;;;;5074665;28;20197;-83
2022/01/09 12:41:26;;;;;;;14.87;4.57;;;;;;;;;;5074782;28;20221;-83
2022/01/09 12:44:00;;;;;;;13.07;4.13;;;;;;;;;;5074560;28;20260;-83
2022/01/09 12:46:30;;;;;;;4.17;1.83;;;;;;;;;;5074530;28;20245;-83
2022/01/09 12:48:59;;;;;;;12.03;4.53;;;;;;;;;;5074487;28;20203;-83
2022/01/09 12:51:29;;;;;;;14.90;3.87;;;;;;;;;;5074148;28;20308;-84
2022/01/09 12:53:59;;;;;;;8.20;3.70;;;;;;;;;;5074414;28;20281;-86
2022/01/09 12:56:29;;;;;;;8.83;4.17;;;;;;;;;;5074619;28;20224;-86
2022/01/09 12:58:59;;;;;;;11.57;3.53;;;;;;;;;;5074596;28;20205;-86
2022/01/09 13:01:31;;;;;;;3.40;1.73;;;;;;;;;;5074621;28;20205;-86
2022/01/09 13:04:00;;;;;;;15.70;5.10;;;;;;;;;;5074693;28;20259;-86
2022/01/09 13:06:31;;;;;;;7.90;3.50;;;;;;;;;;5074545;28;20260;-86
2022/01/09 13:09:01;;;;;;;6.77;2.13;;;;;;;;;;5074652;28;20252;-87
2022/01/09 13:11:53;;;;;;;12.33;4.63;;;;;;;;;;5074205;28;20225;-87
2022/01/09 13:14:31;;;;;;;19.67;6.03;;;;;;;;;;5074315;28;20228;-86
2022/01/09 13:17:02;;;;;;;9.23;3.13;;;;;;;;;;5074293;28;20212;-86
2022/01/09 13:19:51;;;;;;;10.20;3.20;;;;;;;;;;5073940;28;20219;-86
2022/01/09 13:22:21;;;;;;;11.67;2.77;;;;;;;;;;5074202;28;20202;-86
2022/01/09 13:25:01;;;;;;;12.77;4.00;;;;;;;;;;5074515;28;20212;-87
2022/01/09 13:27:31;;;;;;;12.37;5.13;;;;;;;;;;5074118;28;20297;-86
2022/01/09 13:29:59;;;;;;;5.50;2.10;;;;;;;;;;5074059;28;20263;-86
2022/01/09 13:32:28;;;;;;;2.60;1.57;;;;;;;;;;5073857;28;20227;-86
2022/01/09 13:34:56;;;;;;;8.03;2.90;;;;;;;;;;5074078;28;20217;-86
2022/01/09 13:37:25;;;;;;;13.97;3.90;;;;;;;;;;5074037;28;20203;-87
2022/01/09 13:39:55;;;;;;;2.67;1.90;;;;;;;;;;5073981;28;20255;-87
2022/01/09 13:42:24;;;;;;;15.07;2.73;;;;;;;;;;5073557;28;20195;-87
2022/01/09 13:45:03;;;;;;;8.57;3.80;;;;;;;;;;5073956;28;20233;-86
2022/01/09 13:47:32;;;;;;;6.37;2.57;;;;;;;;;;5073856;28;20248;-87
2022/01/09 13:50:02;;;;;;;16.37;5.03;;;;;;;;;;5074203;28;20252;-86
2022/01/09 13:52:34;;;;;;;4.60;1.77;;;;;;;;;;5074069;28;20217;-87
2022/01/09 13:55:03;;;;;;;2.37;1.80;;;;;;;;;;5074004;28;20198;-86
2022/01/09 13:57:32;;;;;;;3.33;2.37;;;;;;;;;;5073932;28;20205;-87
2022/01/09 14:00:03;;;;;;;2.63;1.50;;;;;;;;;;5073804;28;20230;-87
2022/01/09 14:02:39;;;;;;;14.50;3.50;;;;;;;;;;5074051;28;20265;-86
2022/01/09 14:05:29;;;;;;;5.53;2.97;;;;;;;;;;5073743;28;20207;-86
2022/01/09 14:07:58;;;;;;;10.43;3.47;;;;;;;;;;5074041;28;20209;-87
2022/01/09 14:10:33;;;;;;;11.63;4.67;;;;;;;;;;5073713;28;20262;-86
2022/01/09 14:13:01;;;;;;;7.90;3.43;;;;;;;;;;5073653;28;20221;-87
2022/01/09 14:15:31;;;;;;;4.80;2.03;;;;;;;;;;5073610;28;20260;-87
2022/01/09 14:17:59;;;;;;;6.97;2.53;;;;;;;;;;5073652;28;20211;-86
2022/01/09 14:20:30;;;;;;;11.70;4.20;;;;;;;;;;5073569;28;20206;-87
2022/01/09 14:23:13;;;;;;;7.77;4.23;;;;;;;;;;5073604;28;20205;-86
2022/01/09 14:25:44;;;;;;;6.50;2.63;;;;;;;;;;5073595;28;20263;-87
2022/01/09 14:28:14;;;;;;;19.10;4.33;;;;;;;;;;5073946;28;20264;-87
2022/01/09 14:30:45;;;;;;;14.03;4.93;;;;;;;;;;5073771;28;20202;-86
2022/01/09 14:33:14;;;;;;;11.50;4.70;;;;;;;;;;5073290;28;20300;-86
2022/01/09 14:35:44;;;;;;;15.80;5.43;;;;;;;;;;5073132;28;20206;-86
2022/01/09 14:38:13;;;;;;;6.37;3.97;;;;;;;;;;5073697;28;20212;-86
2022/01/09 14:40:47;;;;;;;16.13;3.83;;;;;;;;;;5073695;28;20233;-87
2022/01/09 14:43:15;;;;;;;5.97;4.10;;;;;;;;;;5073552;28;20194;-87
2022/01/09 14:45:45;;;;;;;4.83;1.73;;;;;;;;;;5073513;28;20213;-87
2022/01/09 14:48:14;;;;;;;10.77;3.30;;;;;;;;;;5073602;28;20258;-86
2022/01/09 14:50:44;;;;;;;10.77;3.83;;;;;;;;;;5073433;28;20213;-87
2022/01/09 14:53:13;;;;;;;5.83;2.97;;;;;;;;;;5074383;28;20245;-86
2022/01/09 14:55:42;;;;;;;5.50;3.03;;;;;;;;;;5077273;28;20201;-86
2022/01/09 14:58:10;;;;;;;8.93;3.47;;;;;;;;;;5076992;28;20230;-87
2022/01/09 15:00:39;;;;;;;7.37;2.73;;;;;;;;;;5076885;28;20244;-87
2022/01/09 15:03:10;;;;;;;10.33;4.27;;;;;;;;;;5076969;28;20217;-86
2022/01/09 15:05:39;;;;;;;2.27;2.07;;;;;;;;;;5077119;28;20199;-86
2022/01/09 15:08:07;;;;;;;3.07;2.80;;;;;;;;;;5076750;28;20201;-87